NCAR-RAP Real-Time Weather Data

Output produced by METARs form (12 August 2020  18:39 UTC)
found at http://weather.rap.ucar.edu/surface/
 
KABQ 121752Z 31007KT 10SM FEW120 FEW200 32/01 A3020 RMK AO2 SLP125 T03220011 10322 20183 50001
KABQ 121652Z VRB03KT 10SM FEW200 29/01 A3021 RMK AO2 SLP131 T02890006
KABQ 121552Z 30004KT 10SM SCT250 SCT300 25/02 A3021 RMK AO2 SLP134 T02500017
KABQ 121452Z 30005KT 10SM BKN250 BKN300 23/02 A3020 RMK AO2 SLP130 T02330022 51010
KABQ 121352Z 30003KT 10SM FEW160 BKN230 21/03 A3019 RMK AO2 SLP128 T02060033
KABQ 121252Z 30003KT 10SM FEW130 SCT160 SCT210 20/05 A3018 RMK AO2 SLP122 T02000050
KABQ 121152Z 12004KT 10SM FEW130 19/02 A3016 RMK AO2 SLP120 T01890022 10267 20178 51007
KABQ 121052Z 30004KT 10SM BKN130 21/05 A3016 RMK AO2 SLP114 T02110050
KABQ 120952Z 15003KT 10SM BKN130 20/02 A3015 RMK AO2 SLP110 T02000017
KABQ 120852Z 00000KT 10SM SCT140 24/01 A3014 RMK AO2 SLP104 T02390011 53006
KABQ 120752Z 00000KT 10SM CLR 22/02 A3013 RMK AO2 SLP104 T02170017
KABQ 120652Z 02005KT 10SM CLR 26/02 A3012 RMK AO2 SLP098 T02560022 403560200
KABQ 120552Z 00000KT 10SM FEW150 26/02 A3012 RMK AO2 SLP097 T02610017 10344 20256 50007
KABQ 120452Z 12005KT 10SM FEW150 26/02 A3012 RMK AO2 SLP101 T02610017
KABQ 120352Z 14006KT 10SM FEW150 28/01 A3011 RMK AO2 SLP098 T02830011
KABQ 120252Z 23004KT 10SM FEW150 31/01 A3009 RMK AO2 SLP090 T03110011 53000
KABQ 120152Z 25006KT 10SM SCT150 32/01 A3008 RMK AO2 SLP086 T03220011
KABQ 120052Z 27013KT 10SM SCT160 34/01 A3008 RMK AO2 SLP088 T03390006
KABQ 112352Z VRB03KT 10SM SCT160 33/M02 A3009 RMK AO2 SLP090 T03331017 10356 20311 56015
KABQ 112252Z 25009KT 10SM SCT160 34/M02 A3010 RMK AO2 WSHFT 2215 SLP095 T03391022
KABQ 112235Z 24011G18KT 10SM SCT160 34/M02 A3011 RMK AO2 WSHFT 2215 T03441017
KABQ 112152Z 00000KT 10SM SCT160 35/M02 A3012 RMK AO2 SLP099 T03501022
KABQ 112052Z 27008G16KT 10SM BKN140 34/M03 A3014 RMK AO2 SLP104 T03391028 56017
KABQ 111952Z 24008KT 10SM BKN160 33/M04 A3016 RMK AO2 SLP110 T03281044
KABQ 111852Z VRB03KT 10SM SCT140 32/M05 A3018 RMK AO2 SLP118 T03221050
KABQ 111752Z VRB03KT 10SM FEW130 SCT150 32/M03 A3020 RMK AO2 SLP128 VIRGA T03171033 10322 20200 58002
KABQ 111652Z VRB03KT 10SM FEW130 BKN170 29/M04 A3021 RMK AO2 SLP128 VIRGA T02891044
KABQ 111552Z 33007KT 10SM SCT160 27/M03 A3020 RMK AO2 SLP129 VIRGA SW-W T02721028
KABQ 111452Z 34005KT 10SM FEW130 FEW150 25/01 A3020 RMK AO2 SLP130 T02500011 51015
KABQ 111352Z 32005KT 10SM FEW130 SCT150 23/05 A3019 RMK AO2 SLP126 T02280050
KABQ 111252Z 00000KT 10SM FEW140 21/06 A3018 RMK AO2 SLP121 T02060056
KABQ 111152Z 00000KT 10SM FEW140 22/03 A3015 RMK AO2 SLP112 T02170028 10261 20200 53008
KABQ 111052Z 00000KT 10SM FEW150 21/03 A3014 RMK AO2 SLP111 T02110028
KABQ 110952Z 16004KT 10SM FEW150 21/03 A3013 RMK AO2 SLP106 T02110033
KABQ 110852Z 02004KT 10SM SCT150 25/04 A3013 RMK AO2 SLP098 T02500044 53002
KABQ 110752Z 00000KT 10SM BKN150 26/03 A3012 RMK AO2 SLP094 T02560033
KABQ 110652Z 01004KT 10SM SCT150 26/03 A3012 RMK AO2 SLP097 T02560033 403560211
KABQ 110552Z 11005KT 10SM FEW160 24/03 A3012 RMK AO2 SLP100 T02390028 10350 20239 50008
KABQ 110452Z 19004KT 10SM SCT160 28/02 A3012 RMK AO2 SLP098 T02830017
KABQ 110352Z 19005KT 10SM BKN160 29/02 A3011 RMK AO2 SLP097 T02890022
KABQ 110252Z 18005KT 10SM BKN140 31/02 A3009 RMK AO2 SLP090 T03060017 55001
KABQ 110152Z 16006KT 10SM BKN140 33/01 A3008 RMK AO2 SLP086 T03280011
KABQ 110052Z 32005KT 10SM BKN140 34/01 A3008 RMK AO2 SLP087 T03440006
KABQ 102352Z 00000KT 10SM BKN140 33/01 A3009 RMK AO2 SLP091 T03330006 10356 20311 56013
KABQ 102252Z 25005KT 10SM SCT140 BKN180 33/01 A3011 RMK AO2 SLP094 VIRGA T03330011
KABQ 102152Z 29009KT 10SM BKN140 34/01 A3012 RMK AO2 SLP100 VIRGA T03440011
KABQ 102052Z 00000KT 10SM FEW130 BKN150 34/02 A3014 RMK AO2 SLP107 T03390017 56019
KABQ 101952Z 24009KT 10SM FEW130 BKN160 34/01 A3016 RMK AO2 SLP111 VIRGA W T03440011
KABQ 101852Z 20003KT 10SM SCT120 33/02 A3018 RMK AO2 SLP117 T03330017